createdAt,value
2022-11-07T00:00:58.843Z,11.51
2022-11-07T00:01:58.820Z,11.51
2022-11-07T00:02:58.809Z,11.45
2022-11-07T00:03:58.679Z,11.44
2022-11-07T00:04:58.637Z,11.44
2022-11-07T00:05:58.612Z,11.43
2022-11-07T00:06:58.544Z,11.34
2022-11-07T00:07:58.500Z,11.40
2022-11-07T00:08:58.452Z,11.37
2022-11-07T00:09:58.411Z,11.25
2022-11-07T00:10:58.357Z,11.27
2022-11-07T00:11:58.336Z,11.16
2022-11-07T00:12:58.271Z,11.23
2022-11-07T00:13:58.224Z,11.22
2022-11-07T00:14:58.199Z,11.26
2022-11-07T00:15:58.132Z,11.23
2022-11-07T00:16:58.085Z,11.22
2022-11-07T00:17:58.039Z,11.26
2022-11-07T00:18:57.996Z,11.27
2022-11-07T00:19:57.969Z,11.27
2022-11-07T00:20:57.931Z,11.31
2022-11-07T00:21:57.857Z,11.30
2022-11-07T00:22:57.814Z,11.27
2022-11-07T00:23:57.764Z,11.25
2022-11-07T00:24:57.721Z,11.40
2022-11-07T00:25:57.700Z,11.33
2022-11-07T00:26:57.716Z,11.35
2022-11-07T00:27:57.583Z,11.38
2022-11-07T00:28:57.542Z,11.37
2022-11-07T00:29:57.500Z,11.34
2022-11-07T00:30:57.450Z,11.33
2022-11-07T00:31:57.429Z,11.40
2022-11-07T00:33:00.146Z,11.43
2022-11-07T00:33:57.314Z,11.35
2022-11-07T00:34:57.269Z,11.56
2022-11-07T00:35:57.221Z,11.62
2022-11-07T00:36:57.183Z,11.65
2022-11-07T00:37:57.164Z,11.65
2022-11-07T00:38:57.146Z,11.80
2022-11-07T00:39:57.044Z,11.81
2022-11-07T00:40:57.001Z,11.80
2022-11-07T00:41:56.959Z,11.77
2022-11-07T00:42:56.906Z,11.73
2022-11-07T00:43:56.887Z,11.78
2022-11-07T00:44:56.816Z,11.83
2022-11-07T00:45:56.770Z,11.91
2022-11-07T00:46:56.724Z,11.93
2022-11-07T00:47:56.680Z,11.88
2022-11-07T00:48:56.634Z,11.91
2022-11-07T00:49:56.633Z,11.85
2022-11-07T00:50:56.544Z,11.85
2022-11-07T00:51:56.498Z,11.93
2022-11-07T00:52:56.450Z,12.14
2022-11-07T00:53:56.410Z,12.11
2022-11-07T00:54:56.361Z,12.05
2022-11-07T00:55:56.392Z,12.11
2022-11-07T00:56:56.276Z,12.20
2022-11-07T00:57:56.227Z,12.15
2022-11-07T00:58:56.178Z,12.21
2022-11-07T00:59:56.133Z,12.26
2022-11-07T01:00:56.090Z,12.21
2022-11-07T01:01:56.192Z,12.18
2022-11-07T01:02:56.136Z,12.18
2022-11-07T01:03:55.969Z,12.23
2022-11-07T01:04:56.084Z,12.21
2022-11-07T01:05:55.864Z,12.28
2022-11-07T01:06:55.817Z,12.14
2022-11-07T01:07:55.774Z,12.11
2022-11-07T01:08:55.730Z,12.18
2022-11-07T01:09:55.684Z,12.18
2022-11-07T01:10:55.664Z,12.14
2022-11-07T01:11:55.617Z,12.26
2022-11-07T01:12:55.549Z,12.23
2022-11-07T01:13:55.505Z,12.32
2022-11-07T01:14:55.465Z,12.20
2022-11-07T01:15:55.453Z,12.18
2022-11-07T01:16:55.364Z,12.10
2022-11-07T01:17:55.320Z,12.14
2022-11-07T01:18:55.277Z,12.17
2022-11-07T01:19:55.228Z,12.26
2022-11-07T01:20:55.181Z,12.23
2022-11-07T01:21:55.164Z,12.35
2022-11-07T01:22:55.101Z,12.17
2022-11-07T01:23:55.053Z,12.28
2022-11-07T01:24:55.007Z,12.18
2022-11-07T01:25:54.961Z,12.10
2022-11-07T01:26:54.912Z,12.11
2022-11-07T01:27:54.900Z,12.07
2022-11-07T01:28:54.828Z,12.18
2022-11-07T01:29:54.776Z,12.12
2022-11-07T01:30:54.730Z,12.12
2022-11-07T01:31:54.686Z,12.07
2022-11-07T01:32:54.643Z,11.97
2022-11-07T01:33:54.628Z,11.89
2022-11-07T01:34:54.551Z,11.88
2022-11-07T01:35:54.504Z,11.93
2022-11-07T01:36:54.460Z,11.91
2022-11-07T01:37:54.417Z,11.93
2022-11-07T01:38:54.376Z,11.97
2022-11-07T01:39:54.339Z,11.96
2022-11-07T01:40:54.285Z,11.96
2022-11-07T01:41:54.236Z,11.95
2022-11-07T01:42:54.189Z,11.99
2022-11-07T01:43:54.148Z,12.03
2022-11-07T01:44:54.100Z,11.91
2022-11-07T01:45:54.077Z,11.89
2022-11-07T01:46:54.031Z,11.95
2022-11-07T01:47:53.958Z,11.88
2022-11-07T01:48:53.914Z,11.77
2022-11-07T01:49:53.870Z,11.81
2022-11-07T01:50:53.828Z,11.78
2022-11-07T01:51:53.820Z,11.78
2022-11-07T01:52:53.733Z,11.71
2022-11-07T01:53:53.691Z,11.73
2022-11-07T01:54:53.644Z,11.65
2022-11-07T01:55:53.626Z,11.60
2022-11-07T01:56:53.578Z,11.56
2022-11-07T01:57:53.509Z,11.62
2022-11-07T01:58:53.462Z,11.45
2022-11-07T01:59:53.418Z,11.55
2022-11-07T02:00:53.397Z,11.41
2022-11-07T02:01:53.493Z,11.38
2022-11-07T02:02:53.458Z,11.30
2022-11-07T02:03:53.234Z,11.27
2022-11-07T02:04:53.191Z,11.25
2022-11-07T02:05:53.148Z,11.18
2022-11-07T02:06:53.102Z,11.12
2022-11-07T02:07:53.079Z,11.05
2022-11-07T02:08:53.009Z,11.00
2022-11-07T02:09:52.966Z,11.02
2022-11-07T02:10:52.919Z,10.90
2022-11-07T02:11:52.871Z,10.92
2022-11-07T02:12:52.852Z,10.87
2022-11-07T02:13:52.782Z,10.82
2022-11-07T02:14:52.736Z,10.82
2022-11-07T02:15:52.728Z,10.68
2022-11-07T02:16:56.380Z,10.61
2022-11-07T02:17:52.601Z,10.67
2022-11-07T02:18:52.553Z,10.55
2022-11-07T02:19:52.508Z,10.57
2022-11-07T02:20:52.465Z,10.53
2022-11-07T02:21:52.451Z,10.48
2022-11-07T02:22:52.368Z,10.42
2022-11-07T02:23:52.321Z,10.36
2022-11-07T02:24:52.312Z,10.38
2022-11-07T02:25:52.233Z,10.30
2022-11-07T02:26:52.188Z,10.24
2022-11-07T02:27:52.140Z,10.23
2022-11-07T02:28:52.094Z,10.09
2022-11-07T02:29:52.054Z,10.05
2022-11-07T02:30:52.192Z,10.02
2022-11-07T02:31:51.965Z,10.00
2022-11-07T02:32:51.916Z,9.95
2022-11-07T02:33:51.870Z,9.85
2022-11-07T02:34:51.821Z,9.84
2022-11-07T02:35:51.774Z,9.84
2022-11-07T02:36:51.845Z,9.84
2022-11-07T02:37:51.687Z,9.69
2022-11-07T02:38:51.649Z,9.64
2022-11-07T02:39:51.597Z,9.67
2022-11-07T02:40:51.549Z,9.58
2022-11-07T02:41:51.501Z,9.52
2022-11-07T02:42:51.478Z,9.51
2022-11-07T02:43:51.405Z,9.54
2022-11-07T02:44:51.364Z,9.42
2022-11-07T02:45:51.338Z,9.52
2022-11-07T02:46:51.268Z,9.30
2022-11-07T02:47:51.224Z,9.39
2022-11-07T02:48:51.174Z,9.36
2022-11-07T02:49:51.129Z,9.31
2022-11-07T02:50:51.110Z,9.21
2022-11-07T02:51:51.035Z,9.13
2022-11-07T02:52:50.992Z,9.11
2022-11-07T02:53:50.944Z,9.13
2022-11-07T02:54:50.900Z,9.22
2022-11-07T02:55:50.881Z,9.19
2022-11-07T02:56:50.829Z,9.18
2022-11-07T02:57:50.757Z,9.13
2022-11-07T02:58:50.710Z,9.16
2022-11-07T02:59:50.671Z,9.19
2022-11-07T03:00:50.618Z,9.11
2022-11-07T03:01:50.770Z,9.09
2022-11-07T03:02:50.628Z,9.11
2022-11-07T03:03:50.483Z,9.12
2022-11-07T03:04:50.440Z,8.97
2022-11-07T03:05:50.412Z,9.02
2022-11-07T03:06:50.346Z,8.97
2022-11-07T03:07:50.299Z,9.05
2022-11-07T03:08:50.254Z,9.03
2022-11-07T03:09:50.206Z,9.00
2022-11-07T03:10:50.156Z,9.02
2022-11-07T03:11:50.135Z,8.97
2022-11-07T03:12:50.067Z,8.96
2022-11-07T03:13:50.024Z,9.03
2022-11-07T03:14:50.045Z,9.00
2022-11-07T03:15:49.925Z,8.93
2022-11-07T03:16:49.879Z,9.00
2022-11-07T03:17:49.861Z,9.00
2022-11-07T03:18:49.796Z,9.02
2022-11-07T03:19:49.742Z,9.00
2022-11-07T03:20:49.698Z,9.05
2022-11-07T03:21:49.650Z,9.08
2022-11-07T03:22:49.604Z,9.03
2022-11-07T03:23:49.581Z,8.99
2022-11-07T03:24:49.513Z,8.95
2022-11-07T03:25:49.487Z,9.09
2022-11-07T03:26:49.421Z,9.02
2022-11-07T03:27:49.373Z,8.97
2022-11-07T03:28:49.328Z,8.92
2022-11-07T03:29:49.281Z,9.00
2022-11-07T03:30:49.232Z,8.93
2022-11-07T03:31:49.214Z,8.82
2022-11-07T03:32:49.141Z,8.86
2022-11-07T03:33:49.096Z,8.79
2022-11-07T03:34:49.052Z,8.81
2022-11-07T03:35:49.001Z,8.82
2022-11-07T03:36:48.959Z,8.79
2022-11-07T03:37:48.934Z,8.86
2022-11-07T03:38:49.039Z,8.75
2022-11-07T03:39:48.813Z,8.75
2022-11-07T03:40:48.771Z,8.78
2022-11-07T03:41:48.725Z,8.81
2022-11-07T03:42:48.680Z,8.77
2022-11-07T03:43:48.659Z,8.82
2022-11-07T03:44:48.584Z,8.86
2022-11-07T03:45:48.544Z,8.78
2022-11-07T03:46:48.494Z,8.86
2022-11-07T03:47:48.449Z,8.77
2022-11-07T03:48:48.424Z,8.79
2022-11-07T03:49:48.354Z,8.82
2022-11-07T03:50:48.332Z,8.84
2022-11-07T03:51:48.262Z,8.79
2022-11-07T03:52:48.220Z,8.78
2022-11-07T03:53:48.167Z,8.79
2022-11-07T03:54:48.158Z,8.78
2022-11-07T03:55:48.088Z,8.69
2022-11-07T03:56:48.030Z,8.77
2022-11-07T03:57:47.982Z,8.75
2022-11-07T03:58:47.941Z,8.69
2022-11-07T03:59:47.891Z,8.78
2022-11-07T04:00:47.876Z,8.64
2022-11-07T04:01:47.920Z,8.57
2022-11-07T04:02:47.890Z,8.69
2022-11-07T04:03:47.705Z,8.60
2022-11-07T04:04:47.687Z,8.57
2022-11-07T04:05:47.612Z,8.53
2022-11-07T04:06:47.565Z,8.46
2022-11-07T04:07:47.551Z,8.45
2022-11-07T04:08:47.474Z,8.45
2022-11-07T04:09:47.430Z,8.41
2022-11-07T04:10:47.378Z,8.44
2022-11-07T04:11:47.336Z,8.42
2022-11-07T04:12:47.289Z,8.34
2022-11-07T04:13:47.273Z,8.24
2022-11-07T04:14:47.198Z,8.27
2022-11-07T04:15:47.154Z,8.28
2022-11-07T04:16:47.105Z,8.27
2022-11-07T04:17:47.058Z,8.26
2022-11-07T04:18:47.012Z,8.26
2022-11-07T04:19:47.144Z,8.24
2022-11-07T04:20:46.919Z,8.23
2022-11-07T04:21:46.873Z,8.17
2022-11-07T04:22:46.826Z,8.24
2022-11-07T04:23:46.782Z,8.23
2022-11-07T04:24:46.763Z,8.24
2022-11-07T04:25:46.700Z,8.32
2022-11-07T04:26:46.638Z,8.23
2022-11-07T04:27:46.596Z,8.17
2022-11-07T04:28:46.553Z,8.23
2022-11-07T04:29:46.525Z,8.23
2022-11-07T04:30:46.458Z,8.24
2022-11-07T04:31:46.431Z,8.26
2022-11-07T04:32:46.363Z,8.26
2022-11-07T04:33:46.312Z,8.32
2022-11-07T04:34:46.271Z,8.31
2022-11-07T04:35:46.221Z,8.35
2022-11-07T04:36:46.193Z,8.34
2022-11-07T04:37:46.126Z,8.39
2022-11-07T04:38:46.079Z,8.35
2022-11-07T04:39:46.043Z,8.31
2022-11-07T04:40:45.992Z,8.27
2022-11-07T04:41:45.948Z,8.23
2022-11-07T04:42:45.924Z,8.27
2022-11-07T04:43:45.885Z,8.32
2022-11-07T04:44:45.807Z,8.24
2022-11-07T04:45:45.762Z,8.24
2022-11-07T04:46:45.710Z,8.21
2022-11-07T04:47:45.663Z,8.23
2022-11-07T04:48:45.619Z,8.18
2022-11-07T04:49:45.680Z,8.16
2022-11-07T04:50:45.525Z,8.18
2022-11-07T04:51:45.478Z,8.16
2022-11-07T04:52:45.432Z,8.13
2022-11-07T04:53:45.388Z,8.08
2022-11-07T04:54:45.343Z,8.16
2022-11-07T04:55:45.304Z,8.08
2022-11-07T04:56:45.247Z,8.01
2022-11-07T04:57:45.196Z,8.01
2022-11-07T04:58:45.155Z,8.02
2022-11-07T04:59:45.106Z,8.02
2022-11-07T05:00:45.070Z,8.05
2022-11-07T05:01:45.078Z,8.11
2022-11-07T05:02:45.033Z,7.96
2022-11-07T05:03:44.922Z,7.99
2022-11-07T05:04:44.874Z,7.91
2022-11-07T05:05:44.833Z,7.95
2022-11-07T05:06:44.811Z,7.96
2022-11-07T05:07:44.734Z,7.93
2022-11-07T05:08:44.687Z,7.91
2022-11-07T05:09:44.663Z,7.95
2022-11-07T05:10:44.612Z,7.90
2022-11-07T05:11:44.550Z,7.83
2022-11-07T05:12:44.499Z,7.88
2022-11-07T05:13:44.455Z,7.72
2022-11-07T05:14:44.416Z,7.75
2022-11-07T05:15:44.365Z,7.74
2022-11-07T05:16:44.360Z,7.67
2022-11-07T05:17:44.265Z,7.77
2022-11-07T05:18:44.219Z,7.77
2022-11-07T05:19:44.172Z,7.69
2022-11-07T05:20:44.128Z,7.75
2022-11-07T05:21:44.080Z,7.78
2022-11-07T05:22:44.060Z,7.66
2022-11-07T05:23:43.989Z,7.75
2022-11-07T05:24:43.962Z,7.77
2022-11-07T05:25:43.920Z,7.75
2022-11-07T05:26:43.846Z,7.78
2022-11-07T05:27:43.804Z,7.74
2022-11-07T05:28:43.784Z,7.83
2022-11-07T05:29:43.706Z,7.72
2022-11-07T05:30:43.667Z,7.75
2022-11-07T05:31:43.616Z,7.77
2022-11-07T05:32:43.572Z,7.81
2022-11-07T05:33:43.701Z,7.75
2022-11-07T05:34:43.473Z,7.69
2022-11-07T05:35:43.434Z,7.80
2022-11-07T05:36:43.377Z,7.72
2022-11-07T05:37:43.343Z,7.66
2022-11-07T05:38:43.285Z,7.61
2022-11-07T05:39:43.275Z,7.70
2022-11-07T05:40:43.201Z,7.62
2022-11-07T05:41:43.157Z,7.53
2022-11-07T05:42:43.099Z,7.51
2022-11-07T05:43:43.055Z,7.55
2022-11-07T05:44:43.008Z,7.56
2022-11-07T05:45:42.988Z,7.53
2022-11-07T05:46:42.916Z,7.59
2022-11-07T05:47:42.871Z,7.59
2022-11-07T05:48:42.848Z,7.56
2022-11-07T05:49:42.774Z,7.50
2022-11-07T05:50:42.735Z,7.55
2022-11-07T05:51:42.708Z,7.58
2022-11-07T05:52:42.697Z,7.61
2022-11-07T05:53:42.588Z,7.64
2022-11-07T05:54:42.720Z,7.64
2022-11-07T05:55:42.496Z,7.64
2022-11-07T05:56:42.445Z,7.67
2022-11-07T05:57:42.400Z,7.58
2022-11-07T05:58:42.352Z,7.64
2022-11-07T05:59:42.310Z,7.67
2022-11-07T06:03:47.793Z,7.50
2022-11-07T06:04:47.383Z,7.59
2022-11-07T06:05:47.580Z,7.48
2022-11-07T06:06:47.278Z,7.41
2022-11-07T06:07:47.386Z,7.43
2022-11-07T06:08:47.275Z,7.41
2022-11-07T06:09:47.256Z,7.47
2022-11-07T06:10:47.258Z,7.41
2022-11-07T06:11:47.269Z,7.41
2022-11-07T06:12:47.223Z,7.41
2022-11-07T06:13:46.961Z,7.44
2022-11-07T06:14:47.033Z,7.39
2022-11-07T06:15:47.203Z,7.31
2022-11-07T06:16:46.844Z,7.36
2022-11-07T06:17:46.761Z,7.32
2022-11-07T06:18:46.859Z,7.32
2022-11-07T06:19:46.664Z,7.44
2022-11-07T06:20:46.668Z,7.37
2022-11-07T06:21:46.728Z,7.37
2022-11-07T06:22:46.683Z,7.37
2022-11-07T06:23:46.478Z,7.36
2022-11-07T06:24:46.718Z,7.46
2022-11-07T06:25:46.389Z,7.41
2022-11-07T06:26:46.715Z,7.39
2022-11-07T06:27:46.296Z,7.41
2022-11-07T06:28:46.522Z,7.40
2022-11-07T06:29:46.192Z,7.43
2022-11-07T06:30:46.330Z,7.46
2022-11-07T06:31:46.098Z,7.40
2022-11-07T06:32:46.053Z,7.44
2022-11-07T06:33:46.214Z,7.53
2022-11-07T06:34:46.156Z,7.55
2022-11-07T06:35:45.918Z,7.56
2022-11-07T06:36:54.040Z,7.51
2022-11-07T06:37:45.826Z,7.50
2022-11-07T06:38:46.808Z,7.48
2022-11-07T06:39:45.905Z,7.56
2022-11-07T06:40:46.011Z,7.58
2022-11-07T06:41:45.634Z,7.64
2022-11-07T06:42:45.611Z,7.61
2022-11-07T06:43:45.564Z,7.66
2022-11-07T06:44:45.492Z,7.59
2022-11-07T06:45:45.679Z,7.59
2022-11-07T06:46:45.643Z,7.66
2022-11-07T06:47:45.362Z,7.59
2022-11-07T06:48:45.459Z,7.56
2022-11-07T06:49:45.257Z,7.50
2022-11-07T06:50:45.221Z,7.48
2022-11-07T06:51:47.846Z,7.55
2022-11-07T06:52:45.679Z,7.53
2022-11-07T06:53:45.090Z,7.51
2022-11-07T06:54:45.282Z,7.53
2022-11-07T06:55:44.982Z,7.58
2022-11-07T06:56:44.933Z,7.47
2022-11-07T06:57:44.889Z,7.51
2022-11-07T06:58:45.108Z,7.62
2022-11-07T06:59:50.472Z,7.55
2022-11-07T07:00:45.020Z,7.66
2022-11-07T07:01:44.769Z,7.64
2022-11-07T07:02:57.976Z,7.53
2022-11-07T07:03:44.608Z,7.69
2022-11-07T07:04:44.959Z,7.58
2022-11-07T07:05:44.508Z,7.58
2022-11-07T07:06:45.777Z,7.58
2022-11-07T07:07:44.420Z,7.61
2022-11-07T07:08:44.365Z,7.59
2022-11-07T07:09:44.326Z,7.70
2022-11-07T07:10:44.374Z,7.69
2022-11-07T07:11:44.230Z,7.62
2022-11-07T07:12:44.386Z,7.59
2022-11-07T07:13:44.136Z,7.59
2022-11-07T07:14:44.093Z,7.59
2022-11-07T07:15:51.606Z,7.61
2022-11-07T07:16:44.258Z,7.64
2022-11-07T07:17:44.219Z,7.61
2022-11-07T07:18:43.904Z,7.66
2022-11-07T07:19:45.057Z,7.59
2022-11-07T07:20:43.814Z,7.61
2022-11-07T07:21:44.049Z,7.64
2022-11-07T07:22:43.731Z,7.69
2022-11-07T07:23:43.749Z,7.66
2022-11-07T07:24:43.634Z,7.70
2022-11-07T07:25:43.766Z,7.70
2022-11-07T07:26:43.527Z,7.72
2022-11-07T07:27:43.574Z,7.75
2022-11-07T07:28:43.560Z,7.85
2022-11-07T07:29:43.593Z,7.88
2022-11-07T07:30:47.348Z,7.87
2022-11-07T07:31:43.295Z,7.93
2022-11-07T07:32:43.405Z,8.02
2022-11-07T07:33:43.204Z,7.98
2022-11-07T07:34:43.419Z,8.02
2022-11-07T07:35:43.110Z,8.02
2022-11-07T07:36:43.224Z,8.08
2022-11-07T07:37:43.047Z,8.18
2022-11-07T07:38:42.965Z,8.08
2022-11-07T07:39:43.043Z,8.17
2022-11-07T07:40:43.127Z,8.23
2022-11-07T07:41:42.854Z,8.23
2022-11-07T07:42:42.782Z,8.21
2022-11-07T07:43:42.737Z,8.27
2022-11-07T07:44:42.691Z,8.34
2022-11-07T07:45:42.679Z,8.32
2022-11-07T07:46:42.619Z,8.44
2022-11-07T07:47:42.590Z,8.44
2022-11-07T07:48:42.522Z,8.46
2022-11-07T07:49:42.475Z,8.52
2022-11-07T07:50:42.421Z,8.53
2022-11-07T07:51:42.534Z,8.54
2022-11-07T07:52:42.401Z,8.56
2022-11-07T07:53:42.547Z,8.72
2022-11-07T07:54:42.243Z,8.78
2022-11-07T07:55:42.202Z,8.77
2022-11-07T07:56:42.362Z,8.79
2022-11-07T07:57:42.124Z,8.79
2022-11-07T07:58:44.217Z,9.08
2022-11-07T07:59:52.898Z,9.02
2022-11-07T08:00:51.463Z,9.08
2022-11-07T08:01:42.033Z,9.05
2022-11-07T08:02:41.856Z,9.11
2022-11-07T08:04:00.275Z,9.22
2022-11-07T08:04:41.780Z,9.37
2022-11-07T08:05:41.735Z,9.40
2022-11-07T08:06:41.674Z,9.44
2022-11-07T08:07:41.622Z,9.45
2022-11-07T08:08:41.579Z,9.45
2022-11-07T08:09:41.538Z,9.59
2022-11-07T08:10:42.848Z,9.51
2022-11-07T08:11:41.463Z,9.52
2022-11-07T08:12:41.392Z,9.64
2022-11-07T08:13:41.350Z,9.66
2022-11-07T08:14:41.319Z,9.72
2022-11-07T08:15:41.258Z,9.72
2022-11-07T08:16:41.210Z,9.72
2022-11-07T08:17:41.164Z,9.82
2022-11-07T08:18:41.125Z,9.84
2022-11-07T08:19:41.074Z,9.87
2022-11-07T08:20:41.056Z,9.95
2022-11-07T08:21:40.984Z,9.99
2022-11-07T08:22:40.935Z,9.99
2022-11-07T08:23:40.890Z,10.00
2022-11-07T08:24:40.847Z,10.07
2022-11-07T08:25:40.797Z,10.09
2022-11-07T08:26:40.794Z,10.20
2022-11-07T08:27:40.707Z,10.24
2022-11-07T08:28:40.660Z,10.42
2022-11-07T08:29:40.615Z,10.38
2022-11-07T08:30:40.573Z,10.46
2022-11-07T08:31:40.523Z,10.53
2022-11-07T08:32:40.509Z,10.67
2022-11-07T08:33:40.476Z,10.80
2022-11-07T08:34:40.386Z,10.82
2022-11-07T08:35:42.638Z,10.86
2022-11-07T08:36:40.319Z,10.97
2022-11-07T08:37:40.252Z,11.01
2022-11-07T08:38:40.211Z,11.08
2022-11-07T08:39:40.167Z,11.26
2022-11-07T08:40:40.112Z,11.35
2022-11-07T08:41:40.067Z,11.41
2022-11-07T08:42:40.046Z,11.38
2022-11-07T08:43:39.994Z,11.49
2022-11-07T08:44:39.931Z,11.55
2022-11-07T08:45:39.888Z,11.60
2022-11-07T08:46:39.838Z,11.51
2022-11-07T08:47:39.800Z,11.59
2022-11-07T08:48:39.748Z,11.62
2022-11-07T08:49:39.732Z,11.65
2022-11-07T08:50:39.663Z,11.70
2022-11-07T08:51:39.619Z,11.83
2022-11-07T08:52:48.951Z,11.83
2022-11-07T08:53:39.536Z,11.89
2022-11-07T08:54:39.477Z,11.88
2022-11-07T08:55:39.482Z,12.05
2022-11-07T08:56:39.390Z,12.02
2022-11-07T08:57:39.344Z,11.97
2022-11-07T08:58:39.299Z,12.03
2022-11-07T08:59:39.257Z,12.15
2022-11-07T09:00:39.239Z,12.23
2022-11-07T09:01:56.051Z,12.29
2022-11-07T09:03:45.532Z,12.28
2022-11-07T09:04:39.108Z,12.32
2022-11-07T09:05:38.979Z,12.43
2022-11-07T09:06:38.939Z,12.47
2022-11-07T09:07:38.916Z,12.57
2022-11-07T09:08:38.868Z,12.66
2022-11-07T09:09:38.803Z,12.66
2022-11-07T09:10:38.761Z,12.65
2022-11-07T09:11:38.741Z,12.73
2022-11-07T09:12:38.664Z,12.83
2022-11-07T09:13:38.623Z,12.93
2022-11-07T09:14:38.764Z,12.94
2022-11-07T09:15:38.532Z,13.03
2022-11-07T09:16:38.486Z,13.36
2022-11-07T09:17:38.447Z,13.75
2022-11-07T09:18:38.399Z,14.19
2022-11-07T09:19:38.352Z,14.86
2022-11-07T09:20:38.339Z,15.47
2022-11-07T09:21:38.267Z,16.00
2022-11-07T09:22:38.220Z,16.66
2022-11-07T09:23:38.181Z,17.05
2022-11-07T09:24:38.141Z,17.54
2022-11-07T09:25:38.113Z,17.75
2022-11-07T09:26:38.053Z,18.33
2022-11-07T09:27:38.011Z,18.66
2022-11-07T09:28:37.970Z,19.08
2022-11-07T09:29:37.928Z,19.49
2022-11-07T09:30:37.889Z,19.89
2022-11-07T09:31:37.858Z,20.19
2022-11-07T09:32:45.759Z,20.46
2022-11-07T09:33:37.762Z,20.83
2022-11-07T09:34:37.722Z,21.08
2022-11-07T09:35:37.689Z,21.40
2022-11-07T09:36:37.645Z,21.70
2022-11-07T09:37:37.631Z,21.89
2022-11-07T09:38:37.568Z,22.10
2022-11-07T09:39:37.531Z,22.28
2022-11-07T09:40:37.490Z,22.49
2022-11-07T09:41:37.453Z,22.55
2022-11-07T09:42:37.420Z,22.53
2022-11-07T09:43:37.395Z,22.43
2022-11-07T09:44:37.700Z,22.23
2022-11-07T09:45:37.299Z,21.96
2022-11-07T09:46:37.259Z,21.84
2022-11-07T09:47:37.224Z,21.81
2022-11-07T09:48:37.182Z,21.77
2022-11-07T09:49:37.158Z,21.81
2022-11-07T09:50:37.135Z,21.83
2022-11-07T09:51:37.070Z,21.88
2022-11-07T09:52:37.031Z,21.83
2022-11-07T09:53:36.994Z,21.85
2022-11-07T09:54:36.957Z,21.72
2022-11-07T09:55:36.919Z,21.48
2022-11-07T09:56:36.909Z,21.51
2022-11-07T09:57:36.869Z,21.74
2022-11-07T09:58:36.846Z,21.72
2022-11-07T09:59:36.773Z,21.66
2022-11-07T10:00:36.797Z,21.65
2022-11-07T10:01:36.904Z,21.56
2022-11-07T10:02:36.660Z,21.54
2022-11-07T10:03:36.621Z,21.69
2022-11-07T10:04:36.604Z,21.83
2022-11-07T10:05:36.544Z,21.92
2022-11-07T10:06:36.512Z,21.96
2022-11-07T10:07:36.469Z,21.81
2022-11-07T10:08:36.432Z,21.84
2022-11-07T10:09:36.420Z,21.85
2022-11-07T10:10:36.362Z,21.84
2022-11-07T10:11:36.325Z,21.83
2022-11-07T10:12:40.440Z,22.00
2022-11-07T10:13:36.261Z,21.96
2022-11-07T10:14:36.209Z,21.60
2022-11-07T10:15:36.168Z,21.43
2022-11-07T10:16:36.133Z,21.33
2022-11-07T10:17:36.093Z,21.15
2022-11-07T10:18:36.059Z,21.30
2022-11-07T10:19:36.045Z,21.35
2022-11-07T10:20:36.046Z,21.33
2022-11-07T10:21:38.077Z,21.28
2022-11-07T10:22:35.903Z,21.40
2022-11-07T10:23:35.865Z,21.66
2022-11-07T10:24:35.826Z,21.81
2022-11-07T10:25:35.794Z,21.91
2022-11-07T10:26:35.774Z,22.04
2022-11-07T10:27:35.716Z,22.15
2022-11-07T10:28:35.683Z,21.96
2022-11-07T10:29:39.125Z,22.12
2022-11-07T10:30:35.604Z,22.25
2022-11-07T10:31:35.567Z,22.31
2022-11-07T10:32:35.557Z,22.22
2022-11-07T10:33:35.516Z,22.03
2022-11-07T10:34:35.454Z,21.66
2022-11-07T10:35:35.418Z,21.54
2022-11-07T10:36:35.412Z,21.47
2022-11-07T10:37:35.364Z,21.60
2022-11-07T10:38:35.330Z,21.78
2022-11-07T10:39:35.268Z,21.70
2022-11-07T10:40:35.230Z,22.01
2022-11-07T10:41:35.222Z,22.15
2022-11-07T10:42:35.156Z,22.21
2022-11-07T10:43:35.119Z,22.43
2022-11-07T10:44:35.099Z,22.65
2022-11-07T10:45:35.045Z,22.86
2022-11-07T10:46:35.009Z,22.84
2022-11-07T10:47:34.971Z,22.99
2022-11-07T10:48:34.941Z,23.11
2022-11-07T10:49:34.901Z,23.10
2022-11-07T10:50:34.884Z,22.93
2022-11-07T10:51:34.824Z,23.10
2022-11-07T10:52:34.791Z,23.21
2022-11-07T10:53:34.750Z,23.48
2022-11-07T10:54:34.725Z,23.63
2022-11-07T10:55:34.680Z,23.52
2022-11-07T10:56:34.682Z,23.55
2022-11-07T10:57:34.608Z,23.77
2022-11-07T10:58:34.574Z,23.95
2022-11-07T10:59:36.447Z,24.01
2022-11-07T11:00:34.497Z,24.06
2022-11-07T11:01:34.579Z,24.31
2022-11-07T11:02:34.464Z,24.41
2022-11-07T11:03:43.674Z,24.58
2022-11-07T11:04:34.354Z,24.50
2022-11-07T11:05:34.331Z,24.59
2022-11-07T11:06:34.302Z,24.61
2022-11-07T11:07:34.252Z,24.61
2022-11-07T11:08:34.214Z,24.93
2022-11-07T11:09:34.179Z,25.12
2022-11-07T11:10:34.143Z,25.11
2022-11-07T11:11:34.111Z,25.26
2022-11-07T11:12:34.711Z,25.40
2022-11-07T11:13:34.040Z,25.48
2022-11-07T11:14:34.005Z,25.43
2022-11-07T11:15:35.825Z,25.18
2022-11-07T11:16:33.937Z,25.41
2022-11-07T11:17:33.949Z,25.58
2022-11-07T11:18:33.892Z,25.95
2022-11-07T11:19:33.831Z,25.92
2022-11-07T11:20:33.792Z,25.70
2022-11-07T11:21:33.787Z,25.43
2022-11-07T11:22:33.740Z,25.80
2022-11-07T11:23:33.695Z,25.93
2022-11-07T11:24:33.658Z,25.91
2022-11-07T11:25:33.624Z,25.95
2022-11-07T11:26:33.592Z,25.83
2022-11-07T11:27:33.705Z,25.85
2022-11-07T11:28:33.514Z,25.58
2022-11-07T11:29:39.163Z,25.40
2022-11-07T11:30:33.456Z,25.29
2022-11-07T11:31:33.415Z,25.40
2022-11-07T11:32:33.383Z,25.39
2022-11-07T11:33:33.541Z,25.43
2022-11-07T11:34:33.314Z,25.15
2022-11-07T11:35:36.360Z,25.11
2022-11-07T11:36:33.244Z,25.33
2022-11-07T11:37:33.210Z,25.66
2022-11-07T11:38:33.200Z,25.98
2022-11-07T11:39:33.164Z,26.06
2022-11-07T11:40:33.105Z,26.16
2022-11-07T11:41:33.066Z,26.01
2022-11-07T11:42:33.062Z,25.96
2022-11-07T11:43:33.002Z,26.08
2022-11-07T11:44:32.970Z,26.03
2022-11-07T11:45:32.931Z,25.91
2022-11-07T11:46:32.897Z,25.52
2022-11-07T11:47:34.740Z,25.51
2022-11-07T11:48:32.828Z,25.36
2022-11-07T11:49:32.798Z,25.41
2022-11-07T11:50:32.759Z,25.48
2022-11-07T11:51:32.727Z,25.89
2022-11-07T11:52:32.689Z,25.91
2022-11-07T11:53:32.669Z,25.99
2022-11-07T11:54:32.619Z,26.01
2022-11-07T11:55:32.584Z,25.91
2022-11-07T11:56:32.551Z,25.76
2022-11-07T11:57:32.517Z,25.73
2022-11-07T11:58:32.483Z,25.92
2022-11-07T11:59:32.470Z,26.13
2022-11-07T12:00:32.413Z,26.11
2022-11-07T12:01:32.396Z,26.27
2022-11-07T12:02:32.471Z,26.37
2022-11-07T12:03:32.313Z,26.15
2022-11-07T12:04:32.276Z,25.89
2022-11-07T12:05:32.267Z,25.85
2022-11-07T12:06:32.231Z,25.55
2022-11-07T12:07:32.174Z,25.36
2022-11-07T12:08:32.159Z,25.37
2022-11-07T12:09:32.100Z,25.21
2022-11-07T12:10:32.088Z,25.16
2022-11-07T12:11:32.049Z,25.11
2022-11-07T12:12:31.990Z,24.92
2022-11-07T12:13:31.960Z,24.85
2022-11-07T12:14:31.930Z,24.78
2022-11-07T12:15:31.921Z,24.59
2022-11-07T12:16:31.855Z,24.46
2022-11-07T12:17:31.813Z,24.18
2022-11-07T12:18:31.783Z,23.94
2022-11-07T12:19:31.745Z,23.89
2022-11-07T12:20:31.712Z,23.81
2022-11-07T12:21:31.699Z,23.81
2022-11-07T12:22:31.666Z,23.99
2022-11-07T12:23:31.619Z,24.06
2022-11-07T12:24:31.565Z,23.96
2022-11-07T12:25:31.534Z,24.19
2022-11-07T12:26:31.490Z,24.58
2022-11-07T12:27:31.454Z,24.69
2022-11-07T12:28:31.420Z,24.94
2022-11-07T12:29:31.397Z,25.19
2022-11-07T12:30:31.352Z,25.19
2022-11-07T12:31:31.313Z,25.37
2022-11-07T12:32:31.278Z,25.40
2022-11-07T12:33:31.238Z,25.62
2022-11-07T12:34:31.208Z,25.70
2022-11-07T12:35:31.198Z,25.85
2022-11-07T12:36:31.134Z,25.91
2022-11-07T12:37:31.101Z,26.07
2022-11-07T12:38:31.063Z,26.04
2022-11-07T12:39:31.032Z,26.06
2022-11-07T12:40:30.995Z,25.83
2022-11-07T12:41:30.992Z,25.78
2022-11-07T12:42:30.923Z,25.93
2022-11-07T12:43:30.888Z,25.89
2022-11-07T12:44:30.854Z,25.77
2022-11-07T12:45:30.819Z,25.58
2022-11-07T12:46:30.786Z,25.62
2022-11-07T12:47:30.764Z,25.44
2022-11-07T12:48:30.716Z,25.11
2022-11-07T12:49:30.685Z,24.71
2022-11-07T12:50:30.643Z,24.51
2022-11-07T12:51:30.605Z,24.24
2022-11-07T12:52:30.569Z,24.26
2022-11-07T12:53:30.552Z,24.28
2022-11-07T12:54:30.500Z,24.62
2022-11-07T12:55:30.460Z,24.71
2022-11-07T12:56:30.426Z,24.75
2022-11-07T12:57:30.390Z,24.99
2022-11-07T12:58:30.356Z,25.33
2022-11-07T12:59:30.331Z,25.93
2022-11-07T13:00:30.685Z,26.37
2022-11-07T13:01:30.396Z,26.82
2022-11-07T13:02:30.236Z,27.22
2022-11-07T13:03:30.177Z,27.40
2022-11-07T13:04:30.149Z,27.45
2022-11-07T13:05:30.127Z,27.78
2022-11-07T13:06:30.068Z,27.86
2022-11-07T13:07:30.034Z,27.86